Latest Weather Observations for Jandakot

IDW60801

Issued at 3:02 pm WST Saturday 18 April 2015 (issued every 30 minutes, with the page automatically refreshed every 10 minutes)

About weather observations | Map of weather stations | Latest weather observations for WA | Other Formats
Station Details ID: 009172 Name: JANDAKOT AERO Lat: -32.10 Lon: 115.88 Height: 30.0 m
Data from the previous 72 hours. | See also: Recent months at Jandakot
Date/Time
WST
Temp
°C
App
Temp
°C
Dew
Point
Rel
Hum
%
Delta-T
°C
Wind Press
QNH
hPa
Press
MSL
hPa
Rain
since 9 am
mm
Dir
 
Spd
km/h
Gust
km/h
Spd
kts
Gust
kts
18/03:00pm 26.4 22.2 5.8 26 10.6 SE 17 26 9 14 1022.0 1021.9 0.0
18/02:30pm 26.3 22.8 7.1 29 10.1 ESE 15 24 8 13 1022.1 1022.0 0.0
18/02:00pm 26.2 23.1 7.2 30 10.0 E 13 22 7 12 1022.2 1022.1 0.0
18/01:30pm 26.2 22.5 7.8 31 9.8 E 17 24 9 13 1022.5 1022.4 0.0
18/01:00pm 25.2 21.9 8.1 33 9.1 ENE 15 28 8 15 1022.8 1022.7 0.0
18/12:30pm 25.0 21.7 8.1 34 9.0 ENE 15 24 8 13 1023.3 1023.2 0.0
18/12:00pm 24.4 21.3 8.7 36 8.4 NE 15 24 8 13 1023.8 1023.7 0.0
18/11:30am 23.7 20.3 9.2 39 7.8 ENE 17 22 9 12 1024.1 1024.0 0.0
18/11:00am 22.7 19.5 10.0 44 6.9 E 17 24 9 13 1024.2 1024.1 0.0
18/10:30am 21.8 17.9 9.5 45 6.6 ENE 20 28 11 15 1024.5 1024.4 0.0
18/10:00am 21.3 18.0 9.7 47 6.2 ENE 17 24 9 13 1024.7 1024.6 0.0
18/09:30am 20.0 16.2 9.9 52 5.4 ENE 20 28 11 15 1024.8 1024.7 0.0
18/09:00am 18.6 15.6 10.6 59 4.3 E 17 24 9 13 1024.9 1024.8 0.0
18/08:30am 17.1 13.6 10.1 63 3.7 ESE 19 28 10 15 1024.9 1024.8 0.0
18/08:00am 16.2 13.4 10.1 67 3.2 E 15 20 8 11 1024.5 1024.4 0.0
18/07:30am 14.9 11.7 9.9 72 2.6 ESE 17 24 9 13 1024.0 1023.9 0.0
18/07:00am 14.0 10.4 9.7 75 2.2 ESE 19 26 10 14 1023.7 1023.6 0.0
18/06:30am 13.6 10.3 9.7 77 2.0 E 17 26 9 14 1023.4 1023.3 0.0
18/06:00am 13.5 9.9 9.8 78 1.9 ESE 19 24 10 13 1023.3 1023.2 0.0
18/05:30am 12.0 8.7 9.4 84 1.3 ESE 17 26 9 14 1023.2 1023.1 0.0
18/05:00am 7.9 7.2 6.8 93 0.5 CALM 0 0 0 0 1022.9 1022.8 0.0
18/04:30am 9.0 6.8 7.7 91 0.6 ESE 9 11 5 6 1022.9 1022.8 0.0
18/04:00am 9.5 8.0 8.5 93 0.5 ENE 6 7 3 4 1022.7 1022.6 0.0
18/03:30am 9.9 8.5 8.7 92 0.6 SSE 6 9 3 5 1022.8 1022.7 0.0
18/03:00am 11.3 9.6 9.7 90 0.8 S 9 11 5 6 1022.8 1022.7 0.0
18/02:30am 11.2 9.1 9.8 91 0.7 S 11 13 6 7 1023.1 1023.0 0.0
18/02:00am 10.4 8.1 9.0 91 0.7 SSE 11 13 6 7 1023.0 1022.9 0.0
18/01:30am 11.6 9.2 10.0 90 0.8 S 13 15 7 8 1023.0 1022.9 0.0
18/01:00am 10.1 8.2 8.9 92 0.6 S 9 11 5 6 1022.8 1022.7 0.0
18/12:30am 9.4 7.2 7.7 89 0.8 S 9 11 5 6 1022.7 1022.6 0.0
18/12:00am 10.3 8.7 8.7 90 0.8 S 7 9 4 5 1022.8 1022.7 0.0
 
Date/Time
WST
Temp
°C
App
Temp
°C
Dew
Point
Rel
Hum
%
Delta-T
°C
Wind Press
QNH
hPa
Press
MSL
hPa
Rain
since 9 am
mm
Dir
 
Spd
km/h
Gust
km/h
Spd
kts
Gust
kts
17/11:30pm 10.5 8.9 8.9 90 0.8 S 7 7 4 4 1022.9 1022.8 0.0
17/11:00pm 12.0 10.7 10.0 87 1.0 S 7 7 4 4 1023.1 1023.0 0.0
17/10:30pm 13.4 12.0 10.9 85 1.3 S 9 11 5 6 1023.2 1023.1 0.0
17/10:00pm 13.8 12.8 10.9 83 1.5 S 7 9 4 5 1023.4 1023.3 0.0
17/09:30pm 14.5 13.5 11.1 80 1.8 S 7 9 4 5 1023.4 1023.3 0.0
17/09:00pm 15.3 14.0 11.4 77 2.1 S 9 13 5 7 1023.4 1023.3 0.0
17/08:30pm 16.1 14.1 11.5 74 2.5 S 13 17 7 9 1023.3 1023.2 0.0
17/08:00pm 16.8 14.3 11.0 68 3.1 S 15 20 8 11 1023.2 1023.1 0.0
17/07:30pm 17.3 14.6 10.5 64 3.6 S 15 20 8 11 1023.1 1023.0 0.0
17/07:00pm 17.8 15.1 10.3 61 4.0 SSW 15 22 8 12 1022.8 1022.7 0.0
17/06:30pm 18.3 15.4 9.5 56 4.6 SSW 15 20 8 11 1022.3 1022.2 0.0
17/06:00pm 18.8 16.3 9.7 55 4.8 SSW 13 20 7 11 1021.9 1021.8 0.0
17/05:30pm 19.5 16.7 11.3 59 4.5 SW 17 22 9 12 1021.8 1021.7 0.0
17/05:00pm 20.8 17.9 10.9 53 5.4 SW 17 22 9 12 1021.7 1021.6 0.0
17/04:30pm 21.8 18.6 10.0 47 6.4 WSW 17 20 9 11 1021.6 1021.5 0.0
17/04:00pm 21.8 18.0 9.7 46 6.5 SW 20 26 11 14 1021.9 1021.8 0.0
17/03:30pm 22.5 19.0 10.2 45 6.7 SW 19 24 10 13 1022.0 1021.9 0.0
17/03:00pm 22.5 18.9 10.4 46 6.6 SW 20 28 11 15 1022.0 1021.9 0.0
17/02:30pm 22.9 19.6 11.0 47 6.6 SW 19 26 10 14 1022.1 1022.0 0.0
17/02:00pm 22.7 19.1 10.7 46 6.6 W 20 28 11 15 1022.3 1022.2 0.0
17/01:30pm 22.7 19.7 10.5 46 6.7 WSW 17 22 9 12 1022.7 1022.6 0.0
17/01:00pm 23.1 20.4 10.5 45 6.9 WSW 15 20 8 11 1023.1 1023.0 0.0
17/12:30pm 23.2 21.0 10.7 45 6.9 S 13 22 7 12 1023.7 1023.6 0.0
17/12:00pm 22.7 20.7 10.0 44 6.9 W 11 17 6 9 1024.5 1024.4 0.0
17/11:30am 22.2 20.4 9.5 44 6.8 NNW 9 15 5 8 1025.1 1025.1 0.0
17/11:00am 21.3 18.6 9.0 45 6.5 NNW 13 20 7 11 1025.6 1025.6 0.0
17/10:30am 21.3 19.6 9.7 47 6.2 NNW 9 15 5 8 1026.0 1026.0 0.0
17/10:00am 20.5 18.7 9.6 49 5.8 NE 9 13 5 7 1026.2 1026.2 0.0
17/09:30am 19.2 17.3 9.1 52 5.3 NE 9 13 5 7 1026.4 1026.4 0.0
17/09:00am 18.1 16.7 8.8 54 4.8 NE 6 11 3 6 1026.5 1026.5 0.0
17/08:30am 16.7 14.5 8.0 56 4.4 NE 9 13 5 7 1026.3 1026.3 0.0
17/08:00am 13.8 13.1 8.6 71 2.6 E 2 7 1 4 1025.9 1025.9 0.0
17/07:30am 9.9 8.3 7.8 87 1.0 ENE 6 6 3 3 1025.8 1025.8 0.0
17/07:00am 7.7 5.4 5.7 87 0.9 ENE 7 9 4 5 1025.6 1025.6 0.0
17/06:30am 8.0 5.9 5.8 86 1.0 ENE 6 7 3 4 1025.7 1025.7 0.0
17/06:00am 9.5 6.5 6.2 80 1.5 E 11 13 6 7 1025.7 1025.7 0.0
17/05:30am 7.2 4.0 4.9 85 1.0 E 11 15 6 8 1025.8 1025.8 0.0
17/05:00am 7.6 4.8 5.3 85 1.0 SSE 9 9 5 5 1025.9 1025.9 0.0
17/04:30am 6.9 4.1 5.1 88 0.8 ESE 9 11 5 6 1025.8 1025.8 0.0
17/04:00am 7.2 4.7 4.9 85 1.0 SE 7 9 4 5 1025.9 1025.9 0.0
17/03:30am 7.5 5.3 5.5 87 0.9 SSE 6 7 3 4 1026.1 1026.1 0.0
17/03:00am 7.4 4.3 5.4 87 0.9 SE 11 13 6 7 1026.5 1026.5 0.0
17/02:30am 8.3 5.2 5.6 83 1.2 SSE 11 13 6 7 1026.9 1026.9 0.0
17/02:25am 8.3 5.2 5.6 83 1.2 S 11 13 6 7 1026.9 1026.9 0.0
17/02:14am 8.1 5.4 5.4 83 1.2 SSE 9 9 5 5 1027.0 1027.0 0.0
17/02:00am 8.6 6.4 5.2 79 1.5 S 6 7 3 4 1027.1 1027.1 0.0
17/01:30am 9.5 8.1 5.5 76 1.8 SE 2 7 1 4 1027.2 1027.2 0.0
17/01:00am 9.5 6.1 5.8 78 1.7 ESE 13 15 7 8 1027.1 1027.1 0.0
17/12:30am 11.0 8.3 5.8 70 2.4 ESE 9 11 5 6 1027.2 1027.2 0.0
17/12:00am 9.2 5.7 5.4 77 1.7 ESE 13 15 7 8 1027.4 1027.4 0.0
 
Date/Time
WST
Temp
°C
App
Temp
°C
Dew
Point
Rel
Hum
%
Delta-T
°C
Wind Press
QNH
hPa
Press
MSL
hPa
Rain
since 9 am
mm
Dir
 
Spd
km/h
Gust
km/h
Spd
kts
Gust
kts
16/11:30pm 9.2 7.0 6.1 81 1.4 ESE 7 7 4 4 1027.6 1027.6 0.0
16/11:00pm 9.4 7.1 5.9 79 1.6 SSE 7 9 4 5 1027.8 1027.8 0.0
16/10:30pm 10.8 8.7 6.5 75 2.0 S 7 9 4 5 1028.1 1028.1 0.0
16/10:00pm 11.3 8.8 6.4 72 2.3 S 9 11 5 6 1028.2 1028.2 0.0
16/09:30pm 10.9 8.3 6.2 73 2.2 SSE 9 13 5 7 1028.2 1028.2 0.0
16/09:00pm 12.6 10.1 6.7 67 2.8 S 9 13 5 7 1027.9 1027.9 0.0
16/08:30pm 13.4 12.6 6.5 63 3.3 CALM 0 0 0 0 1027.6 1027.6 0.0
16/08:00pm 14.3 11.4 6.6 60 3.7 SE 11 13 6 7 1027.4 1027.4 0.0
16/07:30pm 14.3 11.9 6.9 61 3.6 ESE 9 11 5 6 1027.5 1027.5 0.0
16/07:00pm 15.6 13.2 6.8 56 4.3 ESE 9 11 5 6 1027.5 1027.5 0.0
16/06:30pm 17.6 14.7 6.6 48 5.5 E 11 13 6 7 1027.4 1027.4 0.0
16/06:00pm 19.3 15.9 6.1 42 6.5 ESE 13 17 7 9 1027.3 1027.3 0.0
16/05:30pm 20.9 17.5 5.8 37 7.5 ESE 13 17 7 9 1027.1 1027.1 0.0
16/05:00pm 21.8 18.0 5.8 35 8.0 ESE 15 20 8 11 1026.9 1026.9 0.0
16/04:30pm 22.3 17.0 4.8 32 8.6 ESE 22 28 12 15 1027.0 1027.0 0.0
16/04:00pm 22.9 17.7 5.5 32 8.7 SE 22 28 12 15 1026.9 1026.9 0.0
16/03:30pm 22.5 17.2 5.1 32 8.7 SE 22 30 12 16 1027.1 1027.1 0.0
16/03:00pm 22.7 18.0 5.2 32 8.7 SE 19 30 10 16 1027.4 1027.4 0.0
16/02:30pm 22.0 17.9 6.1 35 8.0 ESE 17 26 9 14 1027.6 1027.6 0.0
16/02:00pm 21.6 17.0 5.7 35 7.9 E 19 24 10 13 1027.7 1027.7 0.0
16/01:30pm 21.8 17.7 6.3 36 7.9 E 17 26 9 14 1028.1 1028.1 0.0
16/01:00pm 21.1 16.4 6.1 37 7.5 E 20 30 11 16 1028.7 1028.7 0.0
16/12:30pm 20.5 15.8 6.0 38 7.2 E 20 32 11 17 1029.4 1029.4 0.0
16/12:00pm 20.0 15.6 6.6 41 6.7 ESE 19 28 10 15 1030.2 1030.2 0.0
16/11:30am 19.3 14.8 6.1 42 6.6 ESE 19 28 10 15 1031.3 1031.3 0.0
16/11:00am 18.8 14.4 6.5 44 6.1 E 19 24 10 13 1031.7 1031.7 0.0
16/10:30am 18.1 13.6 6.8 47 5.6 E 20 28 11 15 1031.6 1031.6 0.0
16/10:00am 18.4 13.8 6.4 45 5.9 E 20 30 11 16 1031.8 1031.8 0.0
16/09:30am 16.6 12.6 6.5 51 5.0 E 17 24 9 13 1032.2 1032.2 0.0
16/09:00am 16.3 12.7 6.9 53 4.6 E 15 20 8 11 1032.2 1032.2 0.0
16/08:30am 14.5 10.5 6.8 60 3.7 ESE 17 24 9 13 1032.0 1032.0 0.0
16/08:00am 13.7 10.1 6.8 63 3.3 ESE 15 20 8 11 1031.8 1031.8 0.0
16/07:30am 11.9 8.3 6.6 70 2.5 ESE 15 19 8 10 1031.6 1031.6 0.0
16/07:00am 11.8 8.1 6.5 70 2.5 ESE 15 20 8 11 1031.1 1031.1 0.0
16/06:30am 11.7 7.6 6.1 68 2.6 ESE 17 19 9 10 1030.8 1030.8 0.0
16/06:00am 11.6 7.9 6.2 69 2.5 ESE 15 20 8 11 1030.8 1030.8 0.0
16/05:30am 12.7 8.6 6.1 64 3.1 E 17 26 9 14 1030.5 1030.5 0.0
16/05:00am 12.4 9.0 5.7 63 3.1 E 13 22 7 12 1030.2 1030.2 0.0
16/04:30am 11.6 8.2 5.8 67 2.7 E 13 17 7 9 1030.0 1030.0 0.0
16/04:00am 12.3 8.1 5.6 63 3.1 ESE 17 22 9 12 1029.9 1029.9 0.0
16/03:30am 12.2 8.4 5.7 64 3.0 ESE 15 20 8 11 1029.9 1029.9 0.0
16/03:00am 12.7 8.5 5.6 62 3.3 E 17 24 9 13 1029.3 1029.3 0.0
16/02:30am 12.6 8.4 5.7 63 3.2 E 17 26 9 14 1029.2 1029.2 0.0
16/02:00am 10.4 8.1 5.6 72 2.2 SSE 7 11 4 6 1029.7 1029.7 0.0
16/01:30am 11.3 8.7 5.9 69 2.5 S 9 11 5 6 1029.7 1029.7 0.0
16/01:00am 11.2 8.2 5.8 69 2.5 S 11 15 6 8 1029.4 1029.4 0.0
16/12:30am 11.5 8.5 6.1 69 2.5 S 11 13 6 7 1029.4 1029.4 0.0
16/12:00am 12.0 9.0 6.0 66 2.8 SSE 11 15 6 8 1029.5 1029.5 0.0
 
Date/Time
WST
Temp
°C
App
Temp
°C
Dew
Point
Rel
Hum
%
Delta-T
°C
Wind Press
QNH
hPa
Press
MSL
hPa
Rain
since 9 am
mm
Dir
 
Spd
km/h
Gust
km/h
Spd
kts
Gust
kts
15/11:30pm 12.7 9.3 6.1 64 3.1 S 13 19 7 10 1029.4 1029.4 0.0
15/11:00pm 13.2 9.4 6.0 61 3.4 S 15 20 8 11 1029.4 1029.4 0.0
15/10:30pm 13.1 9.7 6.1 62 3.3 SSE 13 15 7 8 1029.5 1029.5 0.0
15/10:00pm 12.5 9.2 6.3 66 2.9 SSE 13 15 7 8 1029.2 1029.2 0.0
15/09:30pm 13.0 10.1 6.5 64 3.1 SSE 11 13 6 7 1029.4 1029.4 0.0
15/09:00pm 14.0 11.1 6.7 61 3.5 SSE 11 13 6 7 1029.3 1029.3 0.0
15/08:30pm 14.5 11.4 7.1 61 3.6 SSE 13 15 7 8 1028.9 1028.9 0.0
15/08:00pm 15.2 12.4 7.0 58 4.0 S 11 13 6 7 1028.5 1028.5 0.0
15/07:30pm 16.1 12.9 6.7 53 4.6 SSE 13 17 7 9 1027.9 1027.9 0.0
15/07:00pm 17.0 13.4 6.9 51 5.0 SSE 15 19 8 10 1027.7 1027.7 0.0
15/06:30pm 17.9 14.2 6.5 47 5.6 SSE 15 19 8 10 1027.2 1027.2 0.0
15/06:00pm 18.9 15.2 6.4 44 6.2 SSE 15 19 8 10 1026.3 1026.3 0.0
15/05:30pm 20.2 15.8 6.4 40 6.9 SSE 19 28 10 15 1025.8 1025.8 0.0
15/05:00pm 21.1 16.5 6.4 38 7.4 SSE 20 30 11 16 1025.3 1025.3 0.0
15/04:30pm 21.6 16.6 6.6 37 7.6 S 22 32 12 17 1024.9 1024.8 0.0
15/04:00pm 22.0 16.7 6.7 37 7.8 SSE 24 32 13 17 1024.8 1024.7 0.0
15/03:30pm 22.2 18.3 7.2 38 7.7 SSE 17 22 9 12 1024.8 1024.7 0.0

Other Formats:

Comma delimited format used in spreadsheet applications
http://www.bom.gov.au/fwo/IDW60801/IDW60801.94609.axf

JavaScript Object Notation format (JSON) in row-major order
http://www.bom.gov.au/fwo/IDW60801/IDW60801.94609.json